KTPL

Draughon-Miller Central Texas Regional Airport

Temple, Texas, USA
METAR KTPL 190751Z AUTO 14008KT 7SM OVC004 12/12 A2994 RMK AO2 SLP153 T01220122
Observed Flight Rules
Dec-19 @ 07:51 UTC (30 minutes ago) Instrument Flight Rules
Wind Visibility Clouds
140° at 8 knots 7 miles
  • Overcast at 400' AGL
Temperatures Readings
Current 12°C / 54°F
Dewpoint 12°C / 54°F
Humidity 100%
Altimeter 29.94" Hg
Pressure 1015.3 hPa
Elevation 208
METAR KTPL 190751Z AUTO 14008KT 7SM OVC004 12/12 A2994 RMK AO2 SLP153 T01220122
Observed Flight Rules
Dec-19 @ 07:51 UTC
(30 minutes ago)
LIFR
Wind Visibility
140° at 8 knots 7 miles
Clouds
  • Overcast at 400' AGL
Temperature Dewpoint
12°C / 54°F 12°C / 54°F
Humidity Altimeter Pressure
100% 29.94" Hg 1015.3 hPa